Time;durP1;ratioP1;P1;durP2;ratioP2;P2;SDS_P1;SDS_P2;PMS_P1;PMS_P2;Temp;Humidity;BMP_temperature;BMP_pressure;BME280_temperature;BME280_humidity;BME280_pressure;Samples;Min_cycle;Max_cycle;Signal;HPM_P1;HPM_P2
2023/06/24 00:02:26;;;;;;;20.35;14.80;;;;;;;-145.41;100.00;58600.66;5028288;28;20037;-74
2023/06/24 00:04:54;;;;;;;15.52;11.43;;;;;;;-145.41;100.00;58600.66;5028437;28;20518;-73
2023/06/24 00:07:22;;;;;;;17.17;12.00;;;;;;;-145.41;100.00;58600.66;5030908;28;20045;-73
2023/06/24 00:09:47;;;;;;;17.58;12.48;;;;;;;-145.41;100.00;58600.66;5011824;28;20053;-73
2023/06/24 00:12:18;;;;;;;17.33;12.38;;;;;;;-145.41;100.00;58600.66;5028649;28;20037;-73
2023/06/24 00:14:44;;;;;;;19.10;14.33;;;;;;;-145.41;100.00;58600.66;5025468;28;20716;-73
2023/06/24 00:17:10;;;;;;;24.25;13.90;;;;;;;-145.41;100.00;58600.66;5028855;28;20073;-73
2023/06/24 00:19:37;;;;;;;22.25;13.68;;;;;;;-145.41;100.00;58600.66;5025459;28;20073;-73
2023/06/24 00:22:03;;;;;;;21.02;13.60;;;;;;;-145.41;100.00;58600.66;5015182;28;20037;-73
2023/06/24 00:24:29;;;;;;;20.10;14.48;;;;;;;-145.41;100.00;58600.66;5025416;28;20035;-73
2023/06/24 00:26:55;;;;;;;19.90;13.55;;;;;;;-145.41;100.00;58600.66;5028730;28;20038;-73
2023/06/24 00:29:21;;;;;;;21.95;14.35;;;;;;;-145.41;100.00;58600.66;5028555;28;20584;-73
2023/06/24 00:31:47;;;;;;;19.08;13.05;;;;;;;-145.41;100.00;58600.66;5026450;28;20038;-72
2023/06/24 00:34:12;;;;;;;15.63;11.77;;;;;;;-145.41;100.00;58600.66;5014652;28;20091;-74
2023/06/24 00:36:38;;;;;;;22.02;13.52;;;;;;;-145.41;100.00;58600.66;5014465;28;20044;-73
2023/06/24 00:39:05;;;;;;;19.63;13.02;;;;;;;-145.41;100.00;58600.66;5026249;28;20059;-73
2023/06/24 00:41:31;;;;;;;15.68;12.27;;;;;;;-145.41;100.00;58600.66;5012006;28;20043;-74
2023/06/24 00:43:58;;;;;;;20.35;15.52;;;;;;;-145.41;100.00;58600.66;5028121;28;20026;-73
2023/06/24 00:46:28;;;;;;;27.85;17.27;;;;;;;-145.41;100.00;58600.66;5011821;28;20041;-73
2023/06/24 00:48:56;;;;;;;22.77;14.80;;;;;;;-145.41;100.00;58600.66;5027133;28;20033;-73
2023/06/24 00:51:29;;;;;;;21.05;16.05;;;;;;;-145.41;100.00;58600.66;5025033;28;20120;-73
2023/06/24 00:53:54;;;;;;;26.52;15.48;;;;;;;-145.41;100.00;58600.66;5010668;28;20484;-73
2023/06/24 00:56:22;;;;;;;18.23;13.57;;;;;;;-145.41;100.00;58600.66;5028150;28;20045;-73
2023/06/24 00:58:49;;;;;;;21.30;13.52;;;;;;;-145.41;100.00;58600.66;5007564;28;20079;-72
2023/06/24 01:01:16;;;;;;;18.45;13.95;;;;;;;-145.41;100.00;58600.66;5009152;28;20120;-72
2023/06/24 01:03:42;;;;;;;20.15;15.73;;;;;;;-145.41;100.00;58600.66;5008792;28;20063;-73
2023/06/24 01:06:09;;;;;;;26.90;20.67;;;;;;;-145.41;100.00;58600.66;5011638;28;20457;-73
2023/06/24 01:08:35;;;;;;;27.95;16.40;;;;;;;-145.41;100.00;58600.66;5031144;28;20036;-73
2023/06/24 01:11:01;;;;;;;22.42;15.73;;;;;;;-145.41;100.00;58600.66;5007075;28;20033;-73
2023/06/24 01:13:27;;;;;;;18.98;15.45;;;;;;;-145.41;100.00;58600.66;5007809;28;20036;-73
2023/06/24 01:15:53;;;;;;;23.05;17.50;;;;;;;-145.41;100.00;58600.66;5013735;28;20042;-73
2023/06/24 01:18:24;;;;;;;24.48;15.90;;;;;;;-145.41;100.00;58600.66;5025202;28;20497;-73
2023/06/24 01:20:58;;;;;;;22.02;17.17;;;;;;;-145.41;100.00;58600.66;5009280;28;20037;-72
2023/06/24 01:23:41;;;;;;;25.40;17.35;;;;;;;-145.41;100.00;58600.66;5010851;28;20021;-73
2023/06/24 01:26:33;;;;;;;27.15;19.13;;;;;;;-145.41;100.00;58600.66;5013753;28;20032;-73
2023/06/24 01:29:14;;;;;;;28.67;20.40;;;;;;;-145.41;100.00;58600.66;5020258;28;20080;-73
2023/06/24 01:32:10;;;;;;;27.45;17.45;;;;;;;-145.41;100.00;58600.66;5024890;28;20095;-73
2023/06/24 01:34:59;;;;;;;26.70;16.83;;;;;;;-145.41;100.00;58600.66;4997273;28;20041;-73
2023/06/24 01:37:51;;;;;;;25.73;18.55;;;;;;;-145.41;100.00;58600.66;5025194;28;20042;-73
2023/06/24 01:40:26;;;;;;;29.98;20.15;;;;;;;-145.41;100.00;58600.66;5027586;28;20040;-73
2023/06/24 01:42:53;;;;;;;29.98;21.23;;;;;;;-145.41;100.00;58600.66;5012824;28;20033;-73
2023/06/24 01:45:23;;;;;;;23.67;16.27;;;;;;;-145.41;100.00;58600.66;5021129;28;20049;-74
2023/06/24 01:47:59;;;;;;;24.25;17.65;;;;;;;-145.41;100.00;58600.66;5013439;28;20036;-73
2023/06/24 01:50:25;;;;;;;28.52;20.65;;;;;;;-145.41;100.00;58600.66;5023621;28;20030;-73
2023/06/24 01:52:53;;;;;;;36.08;21.67;;;;;;;-145.41;100.00;58600.66;5026910;28;20029;-73
2023/06/24 01:55:20;;;;;;;26.33;20.75;;;;;;;-145.41;100.00;58600.66;5013599;28;20060;-72
2023/06/24 01:57:49;;;;;;;38.10;24.40;;;;;;;-145.41;100.00;58600.66;5013639;28;20518;-73
2023/06/24 02:00:16;;;;;;;32.25;20.27;;;;;;;-145.41;100.00;58600.66;5012082;28;20481;-74
2023/06/24 02:02:49;;;;;;;28.92;19.90;;;;;;;-145.41;100.00;58600.66;5023896;28;20492;-73
2023/06/24 02:05:17;;;;;;;30.13;19.17;;;;;;;-145.41;100.00;58600.66;5026829;28;20044;-73
2023/06/24 02:07:44;;;;;;;31.52;21.83;;;;;;;-145.41;100.00;58600.66;5010104;28;20492;-73
2023/06/24 02:10:11;;;;;;;29.42;21.08;;;;;;;-145.41;100.00;58600.66;5024451;28;20119;-73
2023/06/24 02:12:38;;;;;;;30.80;20.48;;;;;;;-145.41;100.00;58600.66;5030726;28;20044;-73
2023/06/24 02:15:06;;;;;;;32.15;22.58;;;;;;;-145.41;100.00;58600.66;5013280;28;20539;-73
2023/06/24 02:17:33;;;;;;;37.85;25.77;;;;;;;-145.41;100.00;58600.66;5026831;28;20234;-73
2023/06/24 02:19:59;;;;;;;34.13;20.52;;;;;;;-145.41;100.00;58600.66;5010335;28;20064;-73
2023/06/24 02:22:27;;;;;;;38.63;24.38;;;;;;;-145.41;100.00;58600.66;5009826;28;20040;-73
2023/06/24 02:24:54;;;;;;;31.33;20.90;;;;;;;-145.41;100.00;58600.66;5011584;28;20125;-73
2023/06/24 02:27:20;;;;;;;34.15;24.23;;;;;;;-145.41;100.00;58600.66;5026498;28;20420;-73
2023/06/24 02:29:47;;;;;;;32.30;21.63;;;;;;;-145.41;100.00;58600.66;5030257;28;20033;-73
2023/06/24 02:32:12;;;;;;;37.55;24.58;;;;;;;-145.41;100.00;58600.66;5027320;28;20373;-73
2023/06/24 02:34:39;;;;;;;31.95;22.27;;;;;;;-145.41;100.00;58600.66;5024469;28;20040;-73
2023/06/24 02:37:04;;;;;;;36.35;23.40;;;;;;;-145.41;100.00;58600.66;5009607;28;20052;-74
2023/06/24 02:39:31;;;;;;;34.58;20.92;;;;;;;-145.41;100.00;58600.66;5012237;28;20499;-73
2023/06/24 02:41:56;;;;;;;28.73;20.55;;;;;;;-145.41;100.00;58600.66;5026791;28;20037;-73
2023/06/24 02:44:22;;;;;;;44.88;25.73;;;;;;;-145.41;100.00;58600.66;5024611;28;20056;-73
2023/06/24 02:46:51;;;;;;;37.53;24.63;;;;;;;-145.41;100.00;58600.66;5010209;28;20022;-73
2023/06/24 02:49:17;;;;;;;49.42;28.38;;;;;;;-145.41;100.00;58600.66;5028451;28;20222;-73
2023/06/24 02:51:44;;;;;;;28.27;20.73;;;;;;;-145.41;100.00;58600.66;5012432;28;20032;-74
2023/06/24 02:54:12;;;;;;;45.92;24.48;;;;;;;-145.41;100.00;58600.66;5015664;28;20025;-73
2023/06/24 02:56:59;;;;;;;37.25;24.20;;;;;;;-145.41;100.00;58600.66;5008683;28;20095;-73
2023/06/24 02:59:35;;;;;;;39.30;26.10;;;;;;;-145.41;100.00;58600.66;5014583;28;20033;-74
2023/06/24 03:02:05;;;;;;;29.90;20.85;;;;;;;-145.41;100.00;58600.66;5009881;28;20120;-73
2023/06/24 03:04:30;;;;;;;38.85;23.15;;;;;;;-145.41;100.00;58600.66;5016049;28;20037;-74
2023/06/24 03:06:59;;;;;;;45.03;27.08;;;;;;;-145.41;100.00;58600.66;5015825;28;20034;-73
2023/06/24 03:09:26;;;;;;;30.88;20.13;;;;;;;-145.41;100.00;58600.66;5016139;28;20768;-73
2023/06/24 03:11:51;;;;;;;37.28;23.55;;;;;;;-145.41;100.00;58600.66;5012017;28;20033;-73
2023/06/24 03:14:25;;;;;;;32.15;19.10;;;;;;;-145.41;100.00;58600.66;5014732;28;20021;-73
2023/06/24 03:16:52;;;;;;;32.90;21.92;;;;;;;-145.41;100.00;58600.66;5014490;28;20088;-73
2023/06/24 03:19:19;;;;;;;37.25;22.48;;;;;;;-145.41;100.00;58600.66;5019557;28;20057;-73
2023/06/24 03:21:45;;;;;;;40.78;22.63;;;;;;;-145.41;100.00;58600.66;5033643;28;20476;-74
2023/06/24 03:24:12;;;;;;;36.60;22.70;;;;;;;-145.41;100.00;58600.66;5012200;28;20056;-73
2023/06/24 03:26:40;;;;;;;44.53;25.52;;;;;;;-145.41;100.00;58600.66;5016334;28;20402;-73
2023/06/24 03:29:08;;;;;;;39.70;25.23;;;;;;;-145.41;100.00;58600.66;5012021;28;20043;-73
2023/06/24 03:31:34;;;;;;;35.67;20.52;;;;;;;-145.41;100.00;58600.66;5007715;28;20036;-73
2023/06/24 03:34:00;;;;;;;36.60;21.88;;;;;;;-145.41;100.00;58600.66;5015675;28;20064;-73
2023/06/24 03:36:26;;;;;;;37.83;24.20;;;;;;;-145.41;100.00;58600.66;5015891;28;20037;-73
2023/06/24 03:38:52;;;;;;;32.00;19.90;;;;;;;-145.41;100.00;58600.66;5015216;28;20040;-74
2023/06/24 03:41:17;;;;;;;33.25;23.17;;;;;;;-145.41;100.00;58600.66;5011813;28;20664;-74
2023/06/24 03:43:44;;;;;;;36.13;20.65;;;;;;;-145.41;100.00;58600.66;5033597;28;20033;-73
2023/06/24 03:46:11;;;;;;;29.25;21.40;;;;;;;-145.41;100.00;58600.66;5015474;28;20060;-74
2023/06/24 03:48:36;;;;;;;26.75;19.75;;;;;;;-145.41;100.00;58600.66;5011865;28;20068;-74
2023/06/24 03:51:01;;;;;;;29.55;21.02;;;;;;;-145.41;100.00;58600.66;5014893;28;20033;-74
2023/06/24 03:53:28;;;;;;;31.23;22.48;;;;;;;-145.41;100.00;58600.66;5013944;28;20025;-74
2023/06/24 03:55:54;;;;;;;27.40;20.15;;;;;;;-145.41;100.00;58600.66;5014777;28;20459;-73
2023/06/24 03:58:20;;;;;;;32.83;19.20;;;;;;;-145.41;100.00;58600.66;5011385;28;20065;-74
2023/06/24 04:00:49;;;;;;;36.70;20.80;;;;;;;-145.41;100.00;58600.66;5011456;28;20112;-74
2023/06/24 04:03:14;;;;;;;29.88;17.77;;;;;;;-145.41;100.00;58600.66;5015606;28;20037;-74
2023/06/24 04:05:40;;;;;;;25.50;18.60;;;;;;;-145.41;100.00;58600.66;5015302;28;20116;-74
2023/06/24 04:08:06;;;;;;;26.60;18.15;;;;;;;-145.41;100.00;58600.66;5014966;28;20396;-74
2023/06/24 04:10:32;;;;;;;28.20;18.77;;;;;;;-145.41;100.00;58600.66;5032674;28;20030;-74
2023/06/24 04:12:57;;;;;;;29.15;17.58;;;;;;;-145.41;100.00;58600.66;5029619;28;20400;-74
2023/06/24 04:15:23;;;;;;;25.45;18.10;;;;;;;-145.41;100.00;58600.66;5032493;28;20033;-73
2023/06/24 04:17:49;;;;;;;29.77;17.40;;;;;;;-145.41;100.00;58600.66;5032599;28;20029;-74
2023/06/24 04:20:14;;;;;;;30.40;21.45;;;;;;;-145.41;100.00;58600.66;5028962;28;20030;-74
2023/06/24 04:22:41;;;;;;;32.17;19.67;;;;;;;-145.41;100.00;58600.66;5014139;28;20072;-74
2023/06/24 04:25:08;;;;;;;28.13;19.20;;;;;;;-145.41;100.00;58600.66;4998610;28;20075;-76
2023/06/24 04:27:34;;;;;;;31.80;19.80;;;;;;;-145.41;100.00;58600.66;5041396;22;20045;-76
2023/06/24 04:30:01;;;;;;;28.33;17.48;;;;;;;-145.41;100.00;58600.66;5014095;28;20269;-76
2023/06/24 04:32:26;;;;;;;23.42;18.15;;;;;;;-145.41;100.00;58600.66;5025829;28;20036;-76
2023/06/24 04:34:52;;;;;;;30.63;18.02;;;;;;;-145.41;100.00;58600.66;5025400;28;20033;-76
2023/06/24 04:37:17;;;;;;;29.23;18.90;;;;;;;-145.41;100.00;58600.66;5026891;28;20030;-76
2023/06/24 04:39:45;;;;;;;26.77;21.00;;;;;;;-145.41;100.00;58600.66;5011225;28;20033;-76
2023/06/24 04:42:11;;;;;;;28.95;20.02;;;;;;;-145.41;100.00;58600.66;5014719;28;20048;-76
2023/06/24 04:44:36;;;;;;;38.90;22.27;;;;;;;-145.41;100.00;58600.66;5032108;28;20033;-76
2023/06/24 04:47:02;;;;;;;40.65;23.65;;;;;;;-145.41;100.00;58600.66;5032030;28;20052;-76
2023/06/24 04:49:27;;;;;;;35.08;25.63;;;;;;;-145.41;100.00;58600.66;5025898;28;20037;-76
2023/06/24 04:51:52;;;;;;;39.53;25.70;;;;;;;-145.41;100.00;58600.66;5026726;28;20045;-76
2023/06/24 04:54:18;;;;;;;36.88;24.50;;;;;;;-145.41;100.00;58600.66;5028438;28;20119;-75
2023/06/24 04:56:45;;;;;;;31.70;21.77;;;;;;;-145.41;100.00;58600.66;5029629;28;20041;-76
2023/06/24 04:59:10;;;;;;;40.33;24.77;;;;;;;-145.41;100.00;58600.66;5010214;28;20038;-76
2023/06/24 05:01:35;;;;;;;35.72;24.38;;;;;;;-145.41;100.00;58600.66;5032028;28;20033;-76
2023/06/24 05:04:00;;;;;;;39.17;25.35;;;;;;;-145.41;100.00;58600.66;5029977;28;20025;-76
2023/06/24 05:06:26;;;;;;;42.28;26.05;;;;;;;-145.41;100.00;58600.66;5032059;28;20499;-76
2023/06/24 05:08:52;;;;;;;41.25;28.55;;;;;;;-145.41;100.00;58600.66;5031354;28;20496;-76
2023/06/24 05:11:17;;;;;;;41.08;26.02;;;;;;;-145.41;100.00;58600.66;5030653;28;20091;-76
2023/06/24 05:13:42;;;;;;;40.30;27.00;;;;;;;-145.41;100.00;58600.66;5031412;28;20030;-76
2023/06/24 05:16:08;;;;;;;41.33;27.38;;;;;;;-145.41;100.00;58600.66;5031771;28;20041;-76
2023/06/24 05:18:33;;;;;;;40.13;28.00;;;;;;;-145.41;100.00;58600.66;5031441;28;20050;-76
2023/06/24 05:20:58;;;;;;;40.03;28.40;;;;;;;-145.41;100.00;58600.66;5027337;28;20045;-75
2023/06/24 05:23:23;;;;;;;38.80;25.15;;;;;;;-145.41;100.00;58600.66;5028551;28;20036;-76
2023/06/24 05:25:49;;;;;;;39.35;27.17;;;;;;;-145.41;100.00;58600.66;5031545;28;20030;-76
2023/06/24 05:28:14;;;;;;;43.67;29.35;;;;;;;-145.41;100.00;58600.66;5031522;28;20044;-76
2023/06/24 05:30:41;;;;;;;39.15;25.60;;;;;;;-145.41;100.00;58600.66;5029033;28;20026;-76
2023/06/24 05:33:06;;;;;;;38.97;25.27;;;;;;;-145.41;100.00;58600.66;5031520;28;20040;-76
2023/06/24 05:35:31;;;;;;;37.10;26.15;;;;;;;-145.41;100.00;58600.66;5029613;28;20049;-76
2023/06/24 05:37:57;;;;;;;29.02;23.40;;;;;;;-145.41;100.00;58600.66;5027125;28;20091;-75
2023/06/24 05:40:22;;;;;;;36.10;27.08;;;;;;;-145.41;100.00;58600.66;5029572;28;20037;-76
2023/06/24 05:42:47;;;;;;;30.45;24.33;;;;;;;-145.41;100.00;58600.66;5031019;28;20036;-76
2023/06/24 05:45:13;;;;;;;35.88;26.98;;;;;;;-145.41;100.00;58600.66;5013738;28;20040;-76
2023/06/24 05:47:38;;;;;;;34.78;28.00;;;;;;;-145.41;100.00;58600.66;5031115;28;20040;-76
2023/06/24 05:50:04;;;;;;;38.38;26.63;;;;;;;-145.41;100.00;58600.66;5030415;28;20045;-76
2023/06/24 05:52:29;;;;;;;34.25;27.88;;;;;;;-145.41;100.00;58600.66;5027162;28;20048;-75
2023/06/24 05:54:55;;;;;;;36.22;25.75;;;;;;;-145.41;100.00;58600.66;5031077;28;20033;-76
2023/06/24 05:57:20;;;;;;;34.75;24.55;;;;;;;-145.41;100.00;58600.66;5029838;28;20033;-76
2023/06/24 05:59:45;;;;;;;27.35;21.40;;;;;;;-145.41;100.00;58600.66;5030250;28;20038;-76
2023/06/24 06:02:11;;;;;;;30.90;21.70;;;;;;;-145.41;100.00;58600.66;5031401;28;20039;-75
2023/06/24 06:04:36;;;;;;;28.27;22.88;;;;;;;-145.41;100.00;58600.66;5031047;28;20053;-76
2023/06/24 06:07:01;;;;;;;28.73;22.90;;;;;;;-145.41;100.00;58600.66;5030761;28;20033;-76
2023/06/24 06:09:27;;;;;;;25.08;19.20;;;;;;;-145.41;100.00;58600.66;5029614;28;20079;-76
2023/06/24 06:11:52;;;;;;;31.25;20.15;;;;;;;-145.41;100.00;58600.66;5026255;28;20048;-76
2023/06/24 06:14:17;;;;;;;24.38;20.48;;;;;;;-145.41;100.00;58600.66;5030385;28;20090;-76
2023/06/24 06:16:43;;;;;;;25.35;17.40;;;;;;;-145.41;100.00;58600.66;5030821;28;20040;-75
2023/06/24 06:19:08;;;;;;;24.55;20.08;;;;;;;-145.41;100.00;58600.66;5028567;28;20037;-76
2023/06/24 06:21:33;;;;;;;21.90;18.90;;;;;;;-145.41;100.00;58600.66;5025800;28;20038;-76
2023/06/24 06:23:59;;;;;;;20.63;16.65;;;;;;;-145.41;100.00;58600.66;5029858;28;20037;-76
2023/06/24 06:26:24;;;;;;;23.92;19.92;;;;;;;-145.41;100.00;58600.66;5029333;28;20124;-75
2023/06/24 06:28:51;;;;;;;21.95;17.05;;;;;;;-145.41;100.00;58600.66;5026020;28;20136;-76
2023/06/24 06:31:16;;;;;;;16.88;15.00;;;;;;;-145.41;100.00;58600.66;5029783;28;20153;-75
2023/06/24 06:33:43;;;;;;;18.08;15.32;;;;;;;-145.41;100.00;58600.66;5030406;28;20120;-75
2023/06/24 06:36:08;;;;;;;18.33;15.10;;;;;;;-145.41;100.00;58600.66;5011898;28;20037;-76
2023/06/24 06:38:33;;;;;;;16.90;14.02;;;;;;;-145.41;100.00;58600.66;5030559;28;20430;-76
2023/06/24 06:40:59;;;;;;;19.13;15.18;;;;;;;-145.41;100.00;58600.66;5029091;28;20029;-76
2023/06/24 06:43:25;;;;;;;19.42;15.32;;;;;;;-145.41;100.00;58600.66;5029784;28;20408;-76
2023/06/24 06:45:50;;;;;;;17.67;15.68;;;;;;;-145.41;100.00;58600.66;5030518;28;20034;-76
2023/06/24 06:48:15;;;;;;;16.23;14.27;;;;;;;-145.41;100.00;58600.66;5029766;28;20128;-76
2023/06/24 06:50:41;;;;;;;19.15;14.38;;;;;;;-145.41;100.00;58600.66;5029157;28;20447;-75
2023/06/24 06:53:06;;;;;;;17.83;15.32;;;;;;;-145.41;100.00;58600.66;5029148;28;20403;-76
2023/06/24 06:55:31;;;;;;;17.50;13.68;;;;;;;-145.41;100.00;58600.66;5028394;28;20413;-76
2023/06/24 06:57:57;;;;;;;18.25;16.27;;;;;;;-145.41;100.00;58600.66;5030404;28;20037;-76
2023/06/24 07:00:22;;;;;;;22.33;15.93;;;;;;;-145.41;100.00;58600.66;5028990;28;20068;-76
2023/06/24 07:02:47;;;;;;;22.63;18.20;;;;;;;-145.41;100.00;58600.66;5030499;28;20029;-75
2023/06/24 07:05:13;;;;;;;16.85;14.80;;;;;;;-145.41;100.00;58600.66;5030047;28;20036;-75
2023/06/24 07:07:38;;;;;;;17.42;15.50;;;;;;;-145.41;100.00;58600.66;5030617;28;20021;-76
2023/06/24 07:10:04;;;;;;;18.00;14.05;;;;;;;-145.41;100.00;58600.66;5029060;28;20052;-76
2023/06/24 07:12:30;;;;;;;19.80;15.13;;;;;;;-145.41;100.00;58600.66;5029511;28;20033;-75
2023/06/24 07:14:56;;;;;;;18.65;14.65;;;;;;;-145.41;100.00;58600.66;5030341;28;20078;-76
2023/06/24 07:17:21;;;;;;;16.20;14.30;;;;;;;-145.41;100.00;58600.66;5030271;28;20488;-76
2023/06/24 07:19:46;;;;;;;17.63;14.82;;;;;;;-145.41;100.00;58600.66;5028890;28;20032;-76
2023/06/24 07:22:13;;;;;;;17.30;12.77;;;;;;;-145.41;100.00;58600.66;5030402;28;20535;-75
2023/06/24 07:24:38;;;;;;;15.80;13.32;;;;;;;-145.41;100.00;58600.66;5029390;28;20017;-76
2023/06/24 07:27:04;;;;;;;16.08;14.30;;;;;;;-145.41;100.00;58600.66;5026488;28;20504;-76
2023/06/24 07:29:29;;;;;;;14.02;11.25;;;;;;;-145.41;100.00;58600.66;5025640;28;20392;-76
2023/06/24 07:31:54;;;;;;;15.38;13.25;;;;;;;-145.41;100.00;58600.66;5029584;28;20056;-75
2023/06/24 07:34:20;;;;;;;19.55;14.27;;;;;;;-145.41;100.00;58600.66;5029300;28;20026;-75
2023/06/24 07:36:45;;;;;;;16.00;13.20;;;;;;;-145.41;100.00;58600.66;5033201;28;20510;-76
2023/06/24 07:39:10;;;;;;;15.13;13.50;;;;;;;-145.41;100.00;58600.66;5032667;28;20504;-76
2023/06/24 07:41:36;;;;;;;16.05;13.90;;;;;;;-145.41;100.00;58600.66;5033170;28;20499;-76
2023/06/24 07:44:01;;;;;;;15.80;13.05;;;;;;;-145.41;100.00;58600.66;5033254;28;20553;-75
2023/06/24 07:46:27;;;;;;;17.95;15.27;;;;;;;-145.41;100.00;58600.66;5033509;28;20389;-75
2023/06/24 07:48:53;;;;;;;14.52;12.65;;;;;;;-145.41;100.00;58600.66;5030826;28;20037;-76
2023/06/24 07:51:18;;;;;;;16.25;12.05;;;;;;;-145.41;100.00;58600.66;5033564;28;20454;-75
2023/06/24 07:53:43;;;;;;;15.75;12.38;;;;;;;-145.41;100.00;58600.66;5033435;28;20032;-75
2023/06/24 07:56:09;;;;;;;13.90;11.38;;;;;;;-145.41;100.00;58600.66;5032338;28;20117;-76
2023/06/24 07:58:37;;;;;;;16.23;12.20;;;;;;;-145.41;100.00;58600.66;5033301;28;20056;-76
2023/06/24 08:01:03;;;;;;;15.02;12.00;;;;;;;-145.41;100.00;58600.66;5015134;28;20029;-76
2023/06/24 08:03:28;;;;;;;13.50;11.02;;;;;;;-145.41;100.00;58600.66;5033003;28;20096;-76
2023/06/24 08:05:54;;;;;;;13.50;9.43;;;;;;;-145.41;100.00;58600.66;5031578;28;20033;-76
2023/06/24 08:08:20;;;;;;;11.63;9.68;;;;;;;-145.41;100.00;58600.66;5032669;28;20057;-76
2023/06/24 08:10:46;;;;;;;15.68;10.63;;;;;;;-145.41;100.00;58600.66;5011960;28;20044;-76
2023/06/24 08:13:11;;;;;;;14.13;9.88;;;;;;;-145.41;100.00;58600.66;5032913;28;20038;-75
2023/06/24 08:15:36;;;;;;;14.48;10.45;;;;;;;-145.41;100.00;58600.66;5032516;28;20075;-76
2023/06/24 08:18:02;;;;;;;12.27;9.93;;;;;;;-145.41;100.00;58600.66;5032941;28;20121;-76
2023/06/24 08:20:27;;;;;;;14.27;10.90;;;;;;;-145.41;100.00;58600.66;5031099;28;20090;-76
2023/06/24 08:22:52;;;;;;;13.20;10.60;;;;;;;-145.41;100.00;58600.66;5032659;28;20480;-76
2023/06/24 08:25:18;;;;;;;13.20;9.90;;;;;;;-145.41;100.00;58600.66;5032789;28;20503;-76
2023/06/24 08:27:46;;;;;;;12.45;10.13;;;;;;;-145.41;100.00;58600.66;5032607;28;20480;-76
2023/06/24 08:30:12;;;;;;;10.82;9.20;;;;;;;-145.41;100.00;58600.66;5014536;28;20045;-76
2023/06/24 08:32:38;;;;;;;11.23;8.13;;;;;;;-145.41;100.00;58600.66;5032299;28;20040;-76
2023/06/24 08:35:04;;;;;;;12.15;8.95;;;;;;;-145.41;100.00;58600.66;5032877;28;20034;-76
2023/06/24 08:37:29;;;;;;;11.60;8.50;;;;;;;-145.41;100.00;58600.66;5031999;28;20037;-75
2023/06/24 08:39:54;;;;;;;12.68;8.85;;;;;;;-145.41;100.00;58600.66;5031876;28;20488;-76
2023/06/24 08:42:20;;;;;;;14.73;10.45;;;;;;;-145.41;100.00;58600.66;5032336;28;20530;-75
2023/06/24 08:44:45;;;;;;;11.13;9.73;;;;;;;-145.41;100.00;58600.66;5032616;28;20036;-75
2023/06/24 08:47:11;;;;;;;13.18;10.32;;;;;;;-145.41;100.00;58600.66;5032055;28;20041;-76
2023/06/24 08:49:47;;;;;;;14.10;8.90;;;;;;;-145.41;100.00;58600.66;5027583;28;20106;-76
2023/06/24 08:52:14;;;;;;;11.20;8.65;;;;;;;-145.41;100.00;58600.66;5014268;28;20091;-75
2023/06/24 08:54:41;;;;;;;9.52;7.00;;;;;;;-145.41;100.00;58600.66;5031804;28;20132;-76
2023/06/24 08:57:08;;;;;;;8.20;6.95;;;;;;;-145.41;100.00;58600.66;5029626;28;20041;-76
2023/06/24 08:59:34;;;;;;;9.82;7.93;;;;;;;-145.41;100.00;58600.66;5029638;28;20029;-76
2023/06/24 09:02:00;;;;;;;10.98;7.93;;;;;;;-145.41;100.00;58600.66;5031700;28;20037;-76
2023/06/24 09:04:26;;;;;;;10.52;7.03;;;;;;;-145.41;100.00;58600.66;5031926;28;20037;-76
2023/06/24 09:06:51;;;;;;;10.88;7.72;;;;;;;-145.41;100.00;58600.66;5031498;28;20041;-76
2023/06/24 09:09:21;;;;;;;10.10;7.38;;;;;;;-145.41;100.00;58600.66;5029779;28;20061;-76
2023/06/24 09:12:00;;;;;;;8.68;6.25;;;;;;;-145.41;100.00;58600.66;5032100;28;20404;-76
2023/06/24 09:14:27;;;;;;;11.27;7.00;;;;;;;-145.41;100.00;58600.66;5031619;28;20033;-76
2023/06/24 09:17:01;;;;;;;11.57;5.82;;;;;;;-145.41;100.00;58600.66;5031706;28;20049;-76
2023/06/24 09:19:32;;;;;;;10.18;5.18;;;;;;;-145.41;100.00;58600.66;5031216;28;20029;-76
2023/06/24 09:22:02;;;;;;;7.90;4.97;;;;;;;-145.41;100.00;58600.66;5029420;28;20484;-75
2023/06/24 09:24:31;;;;;;;7.30;5.50;;;;;;;-145.41;100.00;58600.66;5030981;28;20033;-76
2023/06/24 09:26:59;;;;;;;6.97;5.05;;;;;;;-145.41;100.00;58600.66;5031342;28;20044;-76
2023/06/24 09:29:32;;;;;;;9.50;5.70;;;;;;;-145.41;100.00;58600.66;5031314;28;20493;-76
2023/06/24 09:31:59;;;;;;;13.80;6.10;;;;;;;-145.41;100.00;58600.66;5028489;28;20093;-75
2023/06/24 09:34:26;;;;;;;8.95;5.32;;;;;;;-145.41;100.00;58600.66;5028940;28;20099;-75
2023/06/24 09:37:01;;;;;;;8.95;5.18;;;;;;;-145.41;100.00;58600.66;5031303;28;20084;-76
2023/06/24 09:39:29;;;;;;;6.85;5.10;;;;;;;-145.41;100.00;58600.66;5030625;28;20037;-76
2023/06/24 09:41:58;;;;;;;9.52;5.78;;;;;;;-145.41;100.00;58600.66;5031252;28;20037;-75
2023/06/24 09:44:26;;;;;;;8.07;5.43;;;;;;;-145.41;100.00;58600.66;5031545;28;20061;-75
2023/06/24 09:46:52;;;;;;;7.90;5.45;;;;;;;-145.41;100.00;58600.66;5031076;28;20040;-76
2023/06/24 09:49:18;;;;;;;7.18;5.43;;;;;;;-145.41;100.00;58600.66;5030575;28;20067;-76
2023/06/24 09:51:45;;;;;;;10.88;6.07;;;;;;;-145.41;100.00;58600.66;5031014;28;20039;-75
2023/06/24 09:54:12;;;;;;;9.60;5.15;;;;;;;-145.41;100.00;58600.66;5031015;28;20029;-75
2023/06/24 09:56:45;;;;;;;6.10;4.95;;;;;;;-145.41;100.00;58600.66;5030436;28;20036;-76
2023/06/24 09:59:12;;;;;;;7.43;5.07;;;;;;;-145.41;100.00;58600.66;5029934;28;20412;-76
2023/06/24 10:01:43;;;;;;;7.22;5.38;;;;;;;-145.41;100.00;58600.66;5029152;28;20033;-75
2023/06/24 10:04:14;;;;;;;6.72;5.55;;;;;;;-145.41;100.00;58600.66;5031335;28;20048;-76
2023/06/24 10:06:40;;;;;;;8.68;5.40;;;;;;;-145.41;100.00;58600.66;5030789;28;20029;-76
2023/06/24 10:09:05;;;;;;;6.40;4.45;;;;;;;-145.41;100.00;58600.66;5029960;28;20463;-76
2023/06/24 10:11:30;;;;;;;8.45;4.82;;;;;;;-145.41;100.00;58600.66;5030057;28;20426;-76
2023/06/24 10:13:56;;;;;;;8.82;4.88;;;;;;;-145.41;100.00;58600.66;5027656;28;20443;-76
2023/06/24 10:16:21;;;;;;;8.73;4.57;;;;;;;-145.41;100.00;58600.66;5029804;28;20404;-76
2023/06/24 10:18:48;;;;;;;6.55;4.28;;;;;;;-145.41;100.00;58600.66;5030111;28;20033;-77
2023/06/24 10:21:15;;;;;;;7.70;4.30;;;;;;;-145.41;100.00;58600.66;5031050;28;20095;-76
2023/06/24 10:23:50;;;;;;;7.20;4.30;;;;;;;-145.41;100.00;58600.66;5029088;28;20049;-76
2023/06/24 10:26:28;;;;;;;8.10;4.88;;;;;;;-145.41;100.00;58600.66;5044645;22;20424;-77
2023/06/24 10:29:06;;;;;;;9.18;5.03;;;;;;;-145.41;100.00;58600.66;5028145;28;20500;-77
2023/06/24 10:31:40;;;;;;;7.95;4.20;;;;;;;-145.41;100.00;58600.66;5028643;28;20271;-77
2023/06/24 10:34:46;;;;;;;7.53;4.50;;;;;;;-145.41;100.00;58600.66;5030385;28;20164;-77
2023/06/24 10:37:20;;;;;;;10.15;5.45;;;;;;;-145.41;100.00;58600.66;5029194;28;20034;-77
2023/06/24 10:39:48;;;;;;;8.60;4.65;;;;;;;-145.41;100.00;58600.66;5028237;28;20440;-77
2023/06/24 10:42:35;;;;;;;8.40;5.03;;;;;;;-145.41;100.00;58600.66;5030330;28;20077;-77
2023/06/24 10:45:10;;;;;;;6.88;4.93;;;;;;;-145.41;100.00;58600.66;5030039;28;20411;-77
2023/06/24 10:47:38;;;;;;;9.30;5.63;;;;;;;-145.41;100.00;58600.66;5028763;28;20045;-77
2023/06/24 10:50:06;;;;;;;7.38;4.90;;;;;;;-145.41;100.00;58600.66;5024501;28;20062;-78
2023/06/24 10:52:32;;;;;;;7.57;5.60;;;;;;;-145.41;100.00;58600.66;5029911;28;20040;-77
2023/06/24 10:54:58;;;;;;;8.90;4.60;;;;;;;-145.41;100.00;58600.66;5027038;28;20400;-77
2023/06/24 10:57:27;;;;;;;7.00;5.10;;;;;;;-145.41;100.00;58600.66;5030410;28;20033;-77
2023/06/24 10:59:55;;;;;;;6.35;4.43;;;;;;;-145.41;100.00;58600.66;5029595;28;20072;-77